Time;durP1;ratioP1;P1;durP2;ratioP2;P2;SDS_P1;SDS_P2;PMS_P1;PMS_P2;Temp;Humidity;BMP_temperature;BMP_pressure;BME280_temperature;BME280_humidity;BME280_pressure;Samples;Min_cycle;Max_cycle;Signal;HPM_P1;HPM_P2
2023/03/10 00:01:19;;;;;;;4.13;2.00;;;6.60;90.30;;;;;;5080111;28;20189;-81
2023/03/10 00:03:47;;;;;;;5.57;2.47;;;6.60;90.20;;;;;;5082175;28;20197;-81
2023/03/10 00:06:16;;;;;;;2.95;2.00;;;6.50;90.10;;;;;;5081362;28;20842;-81
2023/03/10 00:08:43;;;;;;;3.42;2.13;;;6.50;90.40;;;;;;5074717;28;20204;-81
2023/03/10 00:11:10;;;;;;;2.90;1.85;;;6.40;90.90;;;;;;5076707;28;20193;-84
2023/03/10 00:13:37;;;;;;;4.78;2.17;;;6.40;90.80;;;;;;5080956;28;20590;-81
2023/03/10 00:16:06;;;;;;;5.63;2.20;;;6.50;90.60;;;;;;5079895;28;20204;-81
2023/03/10 00:18:33;;;;;;;2.17;1.92;;;6.50;90.40;;;;;;5080135;28;20231;-85
2023/03/10 00:21:00;;;;;;;3.15;1.77;;;6.70;90.00;;;;;;5079460;28;20197;-83
2023/03/10 00:23:27;;;;;;;3.75;2.05;;;6.70;90.00;;;;;;5076775;28;20213;-84
2023/03/10 00:25:55;;;;;;;3.95;2.00;;;6.80;88.70;;;;;;5078340;28;20204;-81
2023/03/10 00:28:22;;;;;;;4.05;1.90;;;6.80;88.30;;;;;;5075979;28;20287;-84
2023/03/10 00:31:01;;;;;;;4.55;1.70;;;6.80;85.40;;;;;;5080863;28;20652;-81
2023/03/10 00:33:29;;;;;;;2.38;1.65;;;6.90;83.70;;;;;;5081564;28;20196;-81
2023/03/10 00:36:07;;;;;;;4.80;1.88;;;7.00;82.40;;;;;;5076240;28;20201;-83
2023/03/10 00:38:35;;;;;;;4.43;1.67;;;6.90;82.80;;;;;;5076388;28;20231;-82
2023/03/10 00:41:05;;;;;;;4.10;1.73;;;6.90;83.10;;;;;;5076683;28;20194;-82
2023/03/10 00:43:32;;;;;;;2.50;1.63;;;6.80;83.70;;;;;;5077477;28;20200;-81
2023/03/10 00:45:59;;;;;;;2.05;1.40;;;6.80;84.30;;;;;;5078398;28;20260;-81
2023/03/10 00:48:27;;;;;;;4.00;1.77;;;6.80;83.70;;;;;;5077037;28;20221;-81
2023/03/10 00:50:56;;;;;;;2.45;1.42;;;6.80;83.30;;;;;;5079981;28;20212;-82
2023/03/10 00:53:22;;;;;;;5.22;1.83;;;6.70;83.90;;;;;;5076829;28;20562;-82
2023/03/10 00:56:00;;;;;;;3.47;1.70;;;6.70;85.00;;;;;;5075937;28;20193;-81
2023/03/10 00:58:28;;;;;;;3.60;1.30;;;6.60;85.60;;;;;;5081672;28;20633;-81
2023/03/10 01:00:55;;;;;;;3.15;1.45;;;6.60;86.30;;;;;;5075799;28;20561;-81
2023/03/10 01:03:22;;;;;;;1.70;1.40;;;6.60;85.50;;;;;;5082765;28;20664;-81
2023/03/10 01:05:49;;;;;;;2.17;1.33;;;6.50;86.20;;;;;;5075715;28;20657;-81
2023/03/10 01:08:18;;;;;;;2.83;1.35;;;6.50;85.80;;;;;;5077683;28;20216;-81
2023/03/10 01:10:46;;;;;;;3.42;1.55;;;6.50;85.10;;;;;;5079822;28;20200;-81
2023/03/10 01:13:14;;;;;;;2.53;1.35;;;6.60;83.90;;;;;;5076437;28;20247;-80
2023/03/10 01:15:43;;;;;;;2.65;1.45;;;6.60;83.10;;;;;;5077062;28;20201;-81
2023/03/10 01:18:10;;;;;;;3.20;1.50;;;6.60;82.20;;;;;;5078020;28;20223;-81
2023/03/10 01:20:39;;;;;;;1.52;1.30;;;6.70;79.50;;;;;;5081027;28;20669;-83
2023/03/10 01:23:07;;;;;;;2.67;1.92;;;6.60;79.50;;;;;;5079464;28;20255;-82
2023/03/10 01:25:35;;;;;;;4.10;1.60;;;6.50;83.30;;;;;;5080974;28;20199;-81
2023/03/10 01:28:02;;;;;;;2.78;1.58;;;6.40;84.80;;;;;;5082556;28;20190;-82
2023/03/10 01:30:29;;;;;;;1.50;1.23;;;6.30;83.50;;;;;;5080220;28;20208;-82
2023/03/10 01:32:55;;;;;;;3.47;1.52;;;6.30;85.80;;;;;;5084340;28;20593;-81
2023/03/10 01:35:22;;;;;;;1.80;1.50;;;6.20;84.70;;;;;;5075053;28;20703;-82
2023/03/10 01:37:49;;;;;;;2.50;1.65;;;6.10;83.80;;;;;;5081279;28;20672;-81
2023/03/10 01:40:18;;;;;;;2.88;1.60;;;6.10;84.80;;;;;;5083161;28;20200;-81
2023/03/10 01:42:46;;;;;;;3.47;1.10;;;6.10;85.80;;;;;;5082604;28;20619;-82
2023/03/10 01:45:46;;;;;;;3.30;1.58;;;6.10;83.90;;;;;;5085473;28;20204;-81
2023/03/10 01:48:16;;;;;;;2.95;1.40;;;6.00;84.20;;;;;;5079656;28;20208;-81
2023/03/10 01:50:46;;;;;;;2.30;1.50;;;5.90;86.60;;;;;;5084578;28;20197;-85
2023/03/10 01:53:15;;;;;;;3.03;1.50;;;5.90;88.50;;;;;;5078560;28;20563;-83
2023/03/10 01:55:48;;;;;;;3.55;1.80;;;5.80;87.20;;;;;;5086667;28;20525;-81
2023/03/10 01:58:18;;;;;;;2.40;1.50;;;5.80;86.70;;;;;;5079586;28;20205;-81
2023/03/10 02:00:45;;;;;;;2.95;1.40;;;5.80;86.80;;;;;;5079976;28;20672;-82
2023/03/10 02:03:17;;;;;;;1.70;1.48;;;5.80;87.50;;;;;;5077533;28;20196;-81
2023/03/10 02:05:48;;;;;;;2.25;1.20;;;5.80;86.10;;;;;;5076878;28;20189;-81
2023/03/10 02:08:15;;;;;;;3.27;1.30;;;5.90;85.30;;;;;;5082727;28;20189;-81
2023/03/10 02:10:42;;;;;;;2.90;1.50;;;5.80;84.90;;;;;;5080976;28;20647;-81
2023/03/10 02:13:09;;;;;;;2.08;1.42;;;5.90;85.90;;;;;;5080502;28;20527;-81
2023/03/10 02:15:37;;;;;;;1.42;1.20;;;5.70;87.10;;;;;;5079706;28;20652;-82
2023/03/10 02:18:07;;;;;;;3.50;1.23;;;5.70;88.40;;;;;;5079982;28;20704;-81
2023/03/10 02:20:40;;;;;;;4.03;1.50;;;5.70;86.30;;;;;;5078721;28;20197;-82
2023/03/10 02:23:07;;;;;;;1.42;1.25;;;5.60;89.40;;;;;;5077287;28;20780;-84
2023/03/10 02:25:41;;;;;;;2.77;1.27;;;5.70;86.80;;;;;;5084704;28;20204;-80
2023/03/10 02:28:10;;;;;;;2.35;1.52;;;5.70;86.20;;;;;;5081310;28;20197;-82
2023/03/10 02:30:38;;;;;;;1.80;1.48;;;5.80;86.00;;;;;;5079348;28;20193;-81
2023/03/10 02:33:08;;;;;;;3.05;1.20;;;5.70;85.90;;;;;;5085172;28;20272;-81
2023/03/10 02:35:35;;;;;;;1.33;1.20;;;5.70;87.10;;;;;;5078543;28;20201;-81
2023/03/10 02:38:02;;;;;;;2.33;1.20;;;5.60;87.30;;;;;;5081588;28;20579;-81
2023/03/10 02:40:33;;;;;;;1.27;1.08;;;5.70;88.70;;;;;;5084123;28;20204;-81
2023/03/10 02:43:02;;;;;;;2.10;1.10;;;5.80;85.00;;;;;;5081221;28;20220;-81
2023/03/10 02:45:33;;;;;;;1.27;1.10;;;5.80;84.30;;;;;;5085096;28;20246;-81
2023/03/10 02:48:00;;;;;;;2.38;0.90;;;5.80;83.80;;;;;;5074097;28;20201;-81
2023/03/10 02:50:30;;;;;;;2.72;1.10;;;5.70;83.70;;;;;;5083649;28;20197;-81
2023/03/10 02:53:03;;;;;;;1.20;0.90;;;5.80;83.10;;;;;;5073824;28;20549;-82
2023/03/10 02:55:30;;;;;;;1.92;1.10;;;5.80;83.20;;;;;;5083585;28;20185;-81
2023/03/10 02:57:56;;;;;;;2.05;1.17;;;5.80;83.20;;;;;;5085461;28;20301;-81
2023/03/10 03:00:23;;;;;;;2.47;1.00;;;5.70;84.50;;;;;;5082278;28;20663;-81
2023/03/10 03:02:51;;;;;;;1.42;1.10;;;5.70;85.10;;;;;;5078581;28;20189;-82
2023/03/10 03:05:18;;;;;;;1.52;1.10;;;5.70;85.50;;;;;;5077109;28;20205;-81
2023/03/10 03:07:45;;;;;;;2.83;1.55;;;5.80;83.30;;;;;;5080618;28;20223;-80
2023/03/10 03:10:12;;;;;;;2.30;1.08;;;5.90;82.50;;;;;;5081320;28;20188;-82
2023/03/10 03:12:39;;;;;;;1.15;1.00;;;5.90;80.40;;;;;;5077417;28;20201;-81
2023/03/10 03:15:07;;;;;;;1.95;1.05;;;6.00;79.40;;;;;;5078399;28;20201;-81
2023/03/10 03:17:34;;;;;;;2.95;1.00;;;6.10;79.70;;;;;;5075498;28;20193;-81
2023/03/10 03:20:10;;;;;;;1.45;1.20;;;6.10;79.60;;;;;;5082310;28;20253;-82
2023/03/10 03:22:37;;;;;;;2.75;1.20;;;6.20;79.00;;;;;;5079308;28;20212;-81
2023/03/10 03:25:04;;;;;;;1.00;1.00;;;6.20;78.00;;;;;;5079422;28;20193;-83
2023/03/10 03:27:31;;;;;;;1.60;1.10;;;6.20;74.80;;;;;;5077887;28;20196;-81
2023/03/10 03:29:59;;;;;;;1.27;1.07;;;6.20;74.10;;;;;;5082463;28;20204;-81
2023/03/10 03:32:26;;;;;;;1.20;0.85;;;6.20;75.80;;;;;;5081518;28;20193;-81
2023/03/10 03:34:53;;;;;;;3.20;1.10;;;6.20;75.60;;;;;;5075178;28;20189;-81
2023/03/10 03:37:21;;;;;;;2.20;1.20;;;6.20;77.40;;;;;;5078751;28;20193;-81
2023/03/10 03:39:48;;;;;;;1.38;0.95;;;6.20;76.20;;;;;;5070741;28;20224;-82
2023/03/10 03:42:15;;;;;;;1.20;1.10;;;6.30;74.90;;;;;;5087029;28;20205;-81
2023/03/10 03:44:42;;;;;;;2.58;1.10;;;6.20;76.80;;;;;;5083855;28;20197;-80
2023/03/10 03:47:09;;;;;;;1.60;1.50;;;6.30;71.20;;;;;;5078719;28;20296;-82
2023/03/10 03:49:36;;;;;;;1.17;1.08;;;6.30;72.20;;;;;;5080958;28;20214;-81
2023/03/10 03:52:03;;;;;;;1.20;1.10;;;6.20;75.70;;;;;;5085116;28;20560;-81
2023/03/10 03:54:31;;;;;;;1.08;0.90;;;6.30;75.50;;;;;;5082273;28;20197;-81
2023/03/10 03:56:58;;;;;;;1.52;1.10;;;6.40;73.50;;;;;;5075519;28;20205;-82
2023/03/10 03:59:25;;;;;;;1.35;0.93;;;6.40;76.30;;;;;;5077901;28;20232;-83
2023/03/10 04:01:52;;;;;;;1.42;0.95;;;6.30;78.60;;;;;;5080569;28;20196;-83
2023/03/10 04:04:19;;;;;;;1.35;1.20;;;6.30;78.10;;;;;;5075821;28;20954;-85
2023/03/10 04:06:46;;;;;;;2.38;1.02;;;6.40;75.40;;;;;;5076652;28;20189;-81
2023/03/10 04:09:13;;;;;;;2.67;1.20;;;6.40;78.80;;;;;;5081158;28;20192;-80
2023/03/10 04:11:41;;;;;;;1.15;1.05;;;6.30;79.30;;;;;;5082803;28;20197;-80
2023/03/10 04:14:07;;;;;;;1.65;1.15;;;6.30;78.60;;;;;;5080341;28;20196;-81
2023/03/10 04:16:34;;;;;;;2.03;1.23;;;6.40;77.90;;;;;;5078924;28;20207;-81
2023/03/10 04:19:01;;;;;;;1.80;1.20;;;6.40;78.40;;;;;;5082559;28;21781;-82
2023/03/10 04:21:28;;;;;;;2.58;1.30;;;6.40;78.00;;;;;;5081114;28;20219;-81
2023/03/10 04:23:55;;;;;;;2.15;1.30;;;6.50;78.60;;;;;;5080715;28;20221;-81
2023/03/10 04:26:22;;;;;;;2.13;1.20;;;6.60;78.70;;;;;;5078783;28;20208;-81
2023/03/10 04:28:50;;;;;;;4.55;1.50;;;6.60;77.80;;;;;;5081773;28;20679;-81
2023/03/10 04:31:18;;;;;;;3.08;1.40;;;6.70;77.40;;;;;;5081350;28;20196;-81
2023/03/10 04:33:45;;;;;;;3.58;1.52;;;6.70;77.60;;;;;;5074659;28;20204;-82
2023/03/10 04:36:12;;;;;;;3.60;1.30;;;6.80;78.70;;;;;;5079976;28;20220;-82
2023/03/10 04:38:40;;;;;;;3.92;1.58;;;6.80;78.30;;;;;;5074852;28;20582;-81
2023/03/10 04:41:08;;;;;;;3.88;1.50;;;6.90;77.40;;;;;;5079001;28;20204;-81
2023/03/10 04:43:35;;;;;;;3.33;1.27;;;7.00;75.40;;;;;;5084596;28;20630;-82
2023/03/10 04:46:04;;;;;;;1.67;1.33;;;7.10;71.90;;;;;;5090295;28;20271;-81
2023/03/10 04:48:31;;;;;;;2.60;1.50;;;7.20;72.00;;;;;;5085524;28;20208;-82
2023/03/10 04:51:03;;;;;;;4.47;1.70;;;7.20;72.00;;;;;;5087887;28;20199;-81
2023/03/10 04:53:31;;;;;;;2.08;1.30;;;7.10;76.50;;;;;;5085185;28;20642;-81
2023/03/10 04:55:58;;;;;;;3.70;1.58;;;7.10;76.50;;;;;;5090564;28;20197;-81
2023/03/10 04:58:25;;;;;;;1.90;1.15;;;7.10;75.40;;;;;;5090635;28;20201;-81
2023/03/10 05:00:52;;;;;;;2.38;1.35;;;7.20;72.40;;;;;;5084503;28;20200;-82
2023/03/10 05:03:20;;;;;;;1.60;1.10;;;7.30;72.90;;;;;;5082619;28;20208;-81
2023/03/10 05:05:47;;;;;;;2.67;1.30;;;7.40;73.80;;;;;;5077599;28;20196;-81
2023/03/10 05:08:14;;;;;;;7.18;1.40;;;7.60;75.00;;;;;;5087081;28;20189;-82
2023/03/10 05:10:42;;;;;;;3.50;1.25;;;7.80;76.70;;;;;;5081985;28;20294;-81
2023/03/10 05:13:11;;;;;;;3.58;1.40;;;8.20;76.00;;;;;;5083468;28;20680;-81
2023/03/10 05:15:38;;;;;;;3.10;1.25;;;8.50;76.50;;;;;;5076496;28;20197;-81
2023/03/10 05:18:06;;;;;;;3.80;1.20;;;8.50;78.30;;;;;;5083967;28;20650;-82
2023/03/10 05:20:34;;;;;;;3.30;1.20;;;8.80;77.90;;;;;;5083485;28;20221;-81
2023/03/10 05:23:01;;;;;;;2.60;1.50;;;8.90;76.80;;;;;;5076864;28;20219;-81
2023/03/10 05:25:28;;;;;;;4.28;1.35;;;9.00;77.00;;;;;;5077156;28;20658;-81
2023/03/10 05:27:55;;;;;;;2.10;1.40;;;9.10;76.90;;;;;;5079742;28;20692;-82
2023/03/10 05:30:22;;;;;;;3.08;1.13;;;9.20;75.90;;;;;;5079483;28;20220;-81
2023/03/10 05:32:49;;;;;;;3.67;1.63;;;9.30;76.40;;;;;;5082970;28;20197;-81
2023/03/10 05:35:18;;;;;;;1.88;1.20;;;9.30;76.70;;;;;;5087732;28;20578;-81
2023/03/10 05:37:47;;;;;;;3.40;1.75;;;9.30;77.50;;;;;;5082360;28;20706;-81
2023/03/10 05:40:17;;;;;;;3.88;1.55;;;9.30;78.10;;;;;;5082401;28;20219;-81
2023/03/10 05:42:44;;;;;;;2.42;1.35;;;9.40;77.20;;;;;;5078388;28;20204;-89
2023/03/10 05:45:11;;;;;;;1.60;1.33;;;9.30;77.90;;;;;;5078504;28;20201;-81
2023/03/10 05:47:38;;;;;;;5.75;1.67;;;9.40;78.00;;;;;;5085743;28;20200;-81
2023/03/10 05:50:06;;;;;;;3.03;1.20;;;9.30;79.30;;;;;;5079522;28;20213;-80
2023/03/10 05:52:37;;;;;;;3.15;1.70;;;9.30;79.20;;;;;;5085318;28;20261;-80
2023/03/10 05:55:09;;;;;;;1.88;1.35;;;9.20;80.60;;;;;;5076869;28;20209;-82
2023/03/10 05:57:35;;;;;;;4.22;1.42;;;9.30;81.20;;;;;;5083010;28;20246;-80
2023/03/10 06:00:03;;;;;;;6.47;1.85;;;9.30;81.30;;;;;;5076097;28;20243;-81
2023/03/10 06:02:30;;;;;;;4.47;1.40;;;9.20;82.10;;;;;;5081467;28;20205;-84
2023/03/10 06:04:57;;;;;;;3.72;1.50;;;9.20;82.40;;;;;;5076442;28;20205;-83
2023/03/10 06:07:25;;;;;;;2.35;1.55;;;9.20;82.60;;;;;;5076691;28;20220;-82
2023/03/10 06:09:53;;;;;;;3.58;1.35;;;9.40;81.80;;;;;;5089094;28;20208;-87
2023/03/10 06:12:21;;;;;;;3.50;1.52;;;9.30;81.80;;;;;;5086543;28;20559;-84
2023/03/10 06:14:48;;;;;;;2.22;1.52;;;9.30;82.40;;;;;;5085252;28;20700;-81
2023/03/10 06:17:14;;;;;;;2.00;1.40;;;9.30;82.00;;;;;;5091453;28;20192;-82
2023/03/10 06:19:43;;;;;;;2.78;1.42;;;9.30;83.20;;;;;;5084446;28;20216;-82
2023/03/10 06:22:10;;;;;;;2.75;1.70;;;9.30;83.20;;;;;;5075056;28;20221;-84
2023/03/10 06:24:37;;;;;;;1.77;1.55;;;9.30;83.30;;;;;;5079443;28;20232;-86
2023/03/10 06:27:04;;;;;;;2.17;1.40;;;9.20;84.60;;;;;;5077858;28;20661;-81
2023/03/10 06:29:33;;;;;;;4.32;1.70;;;9.20;85.70;;;;;;5081954;28;20200;-82
2023/03/10 06:32:00;;;;;;;2.78;1.40;;;9.20;85.70;;;;;;5075185;28;20221;-84
2023/03/10 06:34:27;;;;;;;2.75;1.50;;;9.20;85.60;;;;;;5077748;28;20196;-82
2023/03/10 06:36:55;;;;;;;5.10;1.50;;;9.30;85.50;;;;;;5080903;28;20205;-81
2023/03/10 06:39:22;;;;;;;3.35;1.77;;;9.30;85.60;;;;;;5078980;28;20300;-83
2023/03/10 06:41:49;;;;;;;3.60;1.48;;;9.30;85.70;;;;;;5083591;28;20209;-84
2023/03/10 06:44:17;;;;;;;3.10;1.75;;;9.20;86.30;;;;;;5078648;28;21417;-88
2023/03/10 06:46:46;;;;;;;3.25;2.00;;;9.20;89.00;;;;;;5083878;28;20193;-83
2023/03/10 06:49:13;;;;;;;4.60;2.28;;;9.20;89.20;;;;;;5084654;28;20237;-82
2023/03/10 06:51:40;;;;;;;3.05;2.10;;;9.10;90.10;;;;;;5078707;28;20209;-83
2023/03/10 06:54:07;;;;;;;5.75;1.83;;;9.10;90.50;;;;;;5081201;28;20197;-82
2023/03/10 06:56:33;;;;;;;2.13;1.70;;;9.10;90.50;;;;;;5076977;28;20197;-82
2023/03/10 06:59:00;;;;;;;4.85;1.60;;;9.10;90.50;;;;;;5083310;28;20216;-82
2023/03/10 07:01:29;;;;;;;2.00;1.55;;;9.10;90.50;;;;;;5077623;28;20204;-82
2023/03/10 07:03:58;;;;;;;2.67;1.52;;;9.10;90.50;;;;;;5080619;28;20212;-82
2023/03/10 07:06:25;;;;;;;2.70;1.60;;;9.20;90.50;;;;;;5080126;28;20326;-82
2023/03/10 07:08:54;;;;;;;4.97;1.65;;;9.30;89.40;;;;;;5073823;28;20193;-83
2023/03/10 07:11:21;;;;;;;3.90;1.63;;;9.40;88.30;;;;;;5075528;28;20208;-83
2023/03/10 07:13:48;;;;;;;3.15;1.70;;;9.40;88.40;;;;;;5075490;28;20197;-83
2023/03/10 07:16:15;;;;;;;4.40;1.77;;;9.40;87.80;;;;;;5076928;28;20200;-83
2023/03/10 07:18:42;;;;;;;8.27;1.80;;;9.50;86.90;;;;;;5083076;28;20201;-82
2023/03/10 07:21:12;;;;;;;2.20;1.60;;;9.60;86.20;;;;;;5085227;28;20636;-83
2023/03/10 07:23:39;;;;;;;3.95;1.70;;;9.70;85.90;;;;;;5088734;28;20227;-82
2023/03/10 07:26:07;;;;;;;2.55;1.38;;;9.70;86.30;;;;;;5080421;28;20201;-82
2023/03/10 07:28:36;;;;;;;1.83;1.25;;;9.70;85.40;;;;;;5084886;28;20665;-84
2023/03/10 07:31:06;;;;;;;2.75;1.48;;;9.80;85.60;;;;;;5083046;28;20287;-84
2023/03/10 07:33:33;;;;;;;2.60;1.67;;;9.80;85.00;;;;;;5085451;28;20204;-83
2023/03/10 07:36:05;;;;;;;3.33;1.50;;;9.80;84.50;;;;;;5083599;28;20208;-83
2023/03/10 07:38:33;;;;;;;4.22;1.58;;;10.00;82.40;;;;;;5081416;28;20222;-83
2023/03/10 07:41:00;;;;;;;2.50;1.58;;;10.10;81.30;;;;;;5075230;28;20275;-84
2023/03/10 07:43:27;;;;;;;3.10;1.75;;;10.30;78.60;;;;;;5082323;28;20320;-84
2023/03/10 07:45:54;;;;;;;5.53;1.73;;;10.40;80.00;;;;;;5077408;28;20204;-83
2023/03/10 07:48:21;;;;;;;4.20;1.50;;;10.50;73.80;;;;;;5086770;28;20192;-84
2023/03/10 07:50:55;;;;;;;1.85;1.50;;;10.50;74.80;;;;;;5084828;28;20205;-82
2023/03/10 07:53:22;;;;;;;3.70;1.50;;;10.40;74.30;;;;;;5076417;28;20188;-82
2023/03/10 07:55:51;;;;;;;5.50;1.58;;;10.40;75.40;;;;;;5081235;28;20200;-83
2023/03/10 07:58:19;;;;;;;3.20;1.40;;;10.40;75.40;;;;;;5078199;28;20212;-82
2023/03/10 08:00:46;;;;;;;2.70;1.52;;;10.30;77.50;;;;;;5086383;28;20220;-82
2023/03/10 08:03:13;;;;;;;3.70;1.60;;;10.40;76.30;;;;;;5091679;28;20193;-83
2023/03/10 08:05:42;;;;;;;2.47;1.40;;;10.40;76.40;;;;;;5080896;28;20208;-87
2023/03/10 08:08:09;;;;;;;4.30;1.70;;;10.50;76.00;;;;;;5081847;28;20209;-81
2023/03/10 08:10:36;;;;;;;4.15;1.75;;;10.50;73.60;;;;;;5081092;28;20203;-81
2023/03/10 08:13:04;;;;;;;5.80;1.90;;;10.50;78.10;;;;;;5078029;28;20197;-81
2023/03/10 08:15:31;;;;;;;1.75;1.30;;;10.60;77.00;;;;;;5078921;28;20210;-80
2023/03/10 08:17:58;;;;;;;2.22;1.50;;;10.70;75.80;;;;;;5079371;28;20288;-81
2023/03/10 08:20:25;;;;;;;2.25;1.50;;;11.00;71.50;;;;;;5087462;28;20213;-81
2023/03/10 08:22:53;;;;;;;3.15;1.42;;;11.10;67.10;;;;;;5080094;28;20215;-84
2023/03/10 08:25:19;;;;;;;3.33;1.40;;;11.30;63.50;;;;;;5080072;28;20189;-89
2023/03/10 08:27:46;;;;;;;3.95;2.00;;;11.40;63.20;;;;;;5078026;28;20200;-84
2023/03/10 08:30:15;;;;;;;2.28;1.58;;;11.40;63.50;;;;;;5084197;28;20204;-83
2023/03/10 08:32:42;;;;;;;3.85;1.77;;;11.70;59.60;;;;;;5079578;28;20197;-82
2023/03/10 08:35:09;;;;;;;3.85;1.63;;;11.80;56.80;;;;;;5077217;28;20220;-84
2023/03/10 08:37:36;;;;;;;3.05;1.77;;;12.00;55.90;;;;;;5079809;28;20201;-92
2023/03/10 08:40:06;;;;;;;3.47;1.75;;;12.10;52.00;;;;;;5082897;28;20232;-82
2023/03/10 08:42:35;;;;;;;4.20;1.65;;;12.10;52.10;;;;;;5081237;28;20200;-82
2023/03/10 08:45:02;;;;;;;6.30;1.60;;;11.70;55.50;;;;;;5079245;28;20193;-83
2023/03/10 08:47:33;;;;;;;5.50;1.98;;;11.80;55.90;;;;;;5080346;28;20279;-81
2023/03/10 08:49:59;;;;;;;6.60;1.90;;;12.10;54.90;;;;;;5074789;28;20227;-85
2023/03/10 08:52:26;;;;;;;6.65;1.77;;;12.30;52.20;;;;;;5071613;28;20550;-82
2023/03/10 08:54:54;;;;;;;6.55;1.60;;;12.50;51.10;;;;;;5086335;28;20220;-83
2023/03/10 08:57:20;;;;;;;5.55;1.90;;;12.50;50.70;;;;;;5085454;28;20558;-85
2023/03/10 08:59:47;;;;;;;5.25;1.85;;;12.70;49.20;;;;;;5076887;28;20286;-82
2023/03/10 09:02:14;;;;;;;4.10;1.70;;;12.90;47.90;;;;;;5074470;28;20209;-82
2023/03/10 09:04:43;;;;;;;2.83;1.50;;;13.10;43.10;;;;;;5082114;28;20208;-82
2023/03/10 09:07:12;;;;;;;4.50;1.58;;;13.30;41.70;;;;;;5075415;28;20200;-81
2023/03/10 09:09:38;;;;;;;4.10;1.45;;;13.70;44.00;;;;;;5076414;28;20213;-81
2023/03/10 09:12:07;;;;;;;4.13;1.55;;;14.00;42.40;;;;;;5073563;28;20205;-81
2023/03/10 09:14:34;;;;;;;4.43;1.55;;;14.50;35.80;;;;;;5079076;28;20205;-82
2023/03/10 09:17:01;;;;;;;6.40;2.00;;;14.70;33.10;;;;;;5078531;28;20220;-82
2023/03/10 09:19:28;;;;;;;4.15;1.60;;;15.40;29.90;;;;;;5076816;28;20201;-83
2023/03/10 09:21:58;;;;;;;2.97;1.70;;;15.70;29.80;;;;;;5084198;28;20699;-80
2023/03/10 09:24:25;;;;;;;3.50;1.70;;;16.00;28.70;;;;;;5078677;28;20201;-81
2023/03/10 09:26:51;;;;;;;1.92;1.50;;;15.80;28.50;;;;;;5083717;28;20204;-81
2023/03/10 09:29:18;;;;;;;3.30;1.75;;;15.60;28.40;;;;;;5083325;28;20208;-79
2023/03/10 09:31:47;;;;;;;3.45;1.48;;;16.10;25.50;;;;;;5086210;28;20907;-79
2023/03/10 09:34:13;;;;;;;2.17;1.48;;;16.60;23.50;;;;;;5077029;28;20193;-79
2023/03/10 09:36:40;;;;;;;3.10;1.40;;;16.70;20.70;;;;;;5076549;28;20208;-80
2023/03/10 09:39:08;;;;;;;2.78;1.70;;;16.60;21.50;;;;;;5077441;28;20208;-79
2023/03/10 09:42:00;;;;;;;4.45;1.50;;;16.90;21.60;;;;;;5089527;28;20217;-79
2023/03/10 09:44:34;;;;;;;4.13;1.73;;;16.70;22.20;;;;;;5081375;28;20201;-80
2023/03/10 09:47:22;;;;;;;3.92;1.77;;;16.40;21.90;;;;;;5079129;28;20265;-79
2023/03/10 09:49:59;;;;;;;4.38;1.80;;;15.80;24.10;;;;;;5084473;28;20552;-79
2023/03/10 09:52:34;;;;;;;2.75;1.70;;;15.50;24.50;;;;;;5077924;28;20189;-79
2023/03/10 09:55:13;;;;;;;4.00;1.33;;;15.10;23.80;;;;;;5084760;28;20193;-81
2023/03/10 09:57:40;;;;;;;3.00;1.55;;;15.00;25.00;;;;;;5078835;28;20235;-81
2023/03/10 10:00:16;;;;;;;3.65;1.67;;;14.70;24.70;;;;;;5077839;28;20225;-81
2023/03/10 10:02:47;;;;;;;6.18;1.55;;;14.60;27.00;;;;;;5083331;28;20197;-81
2023/03/10 10:05:20;;;;;;;2.47;1.45;;;14.50;27.40;;;;;;5082757;28;20201;-81
2023/03/10 10:07:52;;;;;;;4.55;2.05;;;14.50;27.40;;;;;;5080225;28;20190;-82
2023/03/10 10:10:25;;;;;;;2.47;1.63;;;14.40;24.80;;;;;;5081039;28;20205;-81
2023/03/10 10:12:54;;;;;;;4.90;1.60;;;14.30;25.10;;;;;;5077730;28;20734;-83
2023/03/10 10:15:23;;;;;;;2.95;1.50;;;14.10;25.20;;;;;;5085814;28;20200;-83
2023/03/10 10:18:04;;;;;;;3.15;1.70;;;13.80;26.80;;;;;;5081466;28;20541;-83
2023/03/10 10:20:37;;;;;;;1.40;1.20;;;13.50;27.10;;;;;;5082945;28;22598;-84
2023/03/10 10:23:06;;;;;;;1.63;1.30;;;13.20;30.00;;;;;;5078571;28;20223;-86
2023/03/10 10:25:37;;;;;;;1.77;1.20;;;12.90;36.60;;;;;;5084394;28;20216;-86
2023/03/10 10:28:14;;;;;;;2.75;1.05;;;12.60;44.40;;;;;;5083246;28;20196;-84
2023/03/10 10:30:41;;;;;;;0.90;0.80;;;12.40;46.80;;;;;;5085372;28;20204;-85
2023/03/10 10:33:10;;;;;;;1.77;1.00;;;12.40;49.00;;;;;;5083824;28;20669;-80
2023/03/10 10:35:39;;;;;;;2.35;0.90;;;12.40;49.00;;;;;;5086148;28;20204;-83
2023/03/10 10:38:17;;;;;;;2.97;0.73;;;12.20;48.80;;;;;;5081999;28;20672;-81
2023/03/10 10:40:50;;;;;;;3.65;0.68;;;11.80;47.80;;;;;;5078355;28;20210;-81
2023/03/10 10:43:19;;;;;;;0.50;0.50;;;11.40;48.00;;;;;;5085265;28;20185;-81
2023/03/10 10:45:53;;;;;;;2.92;0.82;;;11.00;52.60;;;;;;5080017;28;20201;-81
2023/03/10 10:48:39;;;;;;;2.33;0.60;;;10.80;60.40;;;;;;5077588;28;20224;-81
2023/03/10 10:51:18;;;;;;;0.47;0.40;;;10.20;75.80;;;;;;5085969;28;20223;-79
2023/03/10 10:53:45;;;;;;;2.15;0.55;;;9.90;78.50;;;;;;5091913;28;20208;-79
2023/03/10 10:56:15;;;;;;;1.38;0.50;;;9.70;81.50;;;;;;5079644;28;20209;-79
2023/03/10 10:58:43;;;;;;;1.00;0.50;;;9.60;83.80;;;;;;5084613;28;20207;-80
2023/03/10 11:01:12;;;;;;;0.80;0.77;;;9.50;83.30;;;;;;5088887;28;20231;-79
2023/03/10 11:03:41;;;;;;;2.15;0.73;;;9.60;84.90;;;;;;5083132;28;20213;-82
2023/03/10 11:06:23;;;;;;;0.50;0.50;;;9.70;83.00;;;;;;5081657;28;20193;-79
2023/03/10 11:08:51;;;;;;;1.00;0.70;;;9.70;82.70;;;;;;5077904;28;20192;-86
2023/03/10 11:11:29;;;;;;;1.67;0.85;;;9.90;79.40;;;;;;5084021;28;20206;-84
2023/03/10 11:14:25;;;;;;;0.55;0.50;;;9.90;77.20;;;;;;5083331;28;20204;-85
2023/03/10 11:17:00;;;;;;;0.70;0.50;;;9.90;77.70;;;;;;5074436;28;20197;-83
2023/03/10 11:19:34;;;;;;;0.50;0.50;;;10.00;76.90;;;;;;5085628;28;20228;-83
2023/03/10 11:22:06;;;;;;;0.82;0.75;;;10.20;74.60;;;;;;5075136;28;20221;-81
2023/03/10 11:24:40;;;;;;;1.17;0.70;;;10.30;73.30;;;;;;5086600;28;20232;-82
2023/03/10 11:27:18;;;;;;;1.70;0.70;;;10.40;70.90;;;;;;5081823;28;20331;-80
2023/03/10 11:30:00;;;;;;;0.85;0.70;;;10.40;72.10;;;;;;5073470;28;20205;-83
2023/03/10 11:32:34;;;;;;;0.85;0.82;;;10.40;70.30;;;;;;5078641;28;20205;-90
2023/03/10 11:35:14;;;;;;;1.70;0.70;;;10.70;73.80;;;;;;5083197;28;20272;-84
2023/03/10 11:37:46;;;;;;;0.98;0.88;;;11.40;69.50;;;;;;5081050;28;20675;-85
2023/03/10 11:40:19;;;;;;;0.88;0.80;;;11.80;54.50;;;;;;5077805;28;20205;-83
2023/03/10 11:42:55;;;;;;;1.02;0.70;;;12.10;48.70;;;;;;5084946;28;20564;-82
2023/03/10 11:45:29;;;;;;;1.05;0.80;;;12.10;49.40;;;;;;5084170;28;20679;-82
2023/03/10 11:48:16;;;;;;;0.60;0.60;;;12.40;49.00;;;;;;5085100;28;20193;-82
2023/03/10 11:50:51;;;;;;;0.70;0.70;;;12.20;46.80;;;;;;5084049;28;20224;-82
2023/03/10 11:53:28;;;;;;;1.63;0.95;;;12.40;48.50;;;;;;5082814;28;20188;-82
2023/03/10 11:55:55;;;;;;;1.30;0.88;;;12.50;45.60;;;;;;5078575;28;20306;-82
2023/03/10 11:58:28;;;;;;;1.23;0.63;;;12.60;38.60;;;;;;5077572;28;20236;-81
2023/03/10 12:00:56;;;;;;;2.30;0.70;;;12.50;40.00;;;;;;5088350;28;20323;-81
2023/03/10 12:03:35;;;;;;;1.10;0.85;;;12.70;39.00;;;;;;5085256;28;20640;-82
2023/03/10 12:06:03;;;;;;;1.08;0.80;;;12.70;36.30;;;;;;5077458;28;20258;-80
2023/03/10 12:08:34;;;;;;;2.65;0.85;;;13.00;37.60;;;;;;5079173;28;20201;-80
2023/03/10 12:11:04;;;;;;;2.33;0.80;;;13.50;34.80;;;;;;5081273;28;20284;-80
2023/03/10 12:13:43;;;;;;;1.35;0.73;;;13.70;31.40;;;;;;5081319;28;20553;-80
2023/03/10 12:16:18;;;;;;;2.10;0.98;;;14.00;28.10;;;;;;5086168;28;20701;-82
2023/03/10 12:18:45;;;;;;;0.88;0.70;;;14.10;27.40;;;;;;5081449;28;20199;-81
2023/03/10 12:21:15;;;;;;;1.95;0.70;;;14.00;27.00;;;;;;5082643;28;20715;-83
2023/03/10 12:23:44;;;;;;;1.33;1.00;;;13.60;26.70;;;;;;5080529;28;20236;-82
2023/03/10 12:26:11;;;;;;;1.52;0.70;;;13.30;26.40;;;;;;5079583;28;20223;-82
2023/03/10 12:28:39;;;;;;;1.92;0.60;;;13.40;27.60;;;;;;5078477;28;20729;-83
2023/03/10 12:31:09;;;;;;;1.48;0.77;;;13.30;26.40;;;;;;5076128;28;20194;-82
2023/03/10 12:33:52;;;;;;;1.60;0.75;;;13.40;26.50;;;;;;5074317;28;20212;-81
2023/03/10 12:36:31;;;;;;;1.80;0.80;;;13.60;26.70;;;;;;5084121;28;20223;-82
2023/03/10 12:38:59;;;;;;;2.40;0.82;;;13.30;26.40;;;;;;5081997;28;20188;-84
2023/03/10 12:41:46;;;;;;;2.92;0.75;;;13.20;26.40;;;;;;5079815;28;20227;-81
2023/03/10 12:44:46;;;;;;;5.45;1.02;;;13.20;26.30;;;;;;5083576;28;20208;-82
2023/03/10 12:47:32;;;;;;;1.67;0.90;;;13.20;26.40;;;;;;5080618;28;20185;-82
2023/03/10 12:50:05;;;;;;;0.60;0.60;;;13.20;26.30;;;;;;5082948;28;20193;-81
2023/03/10 12:52:38;;;;;;;3.88;1.10;;;13.10;26.20;;;;;;5080993;28;20645;-80
2023/03/10 12:55:19;;;;;;;2.47;0.90;;;12.90;26.10;;;;;;5082429;28;20192;-80
2023/03/10 12:57:57;;;;;;;1.60;1.08;;;12.80;26.30;;;;;;5074142;28;20192;-82
2023/03/10 13:00:31;;;;;;;1.17;0.82;;;12.90;26.90;;;;;;5077017;28;20208;-80
2023/03/10 13:03:03;;;;;;;0.73;0.70;;;12.90;26.10;;;;;;5077445;28;20216;-80
2023/03/10 13:05:34;;;;;;;1.33;0.70;;;12.70;25.90;;;;;;5085035;28;20688;-81